sensor_id;sensor_type;location;lat;lon;timestamp;noise_LAeq;noise_LA_min;noise_LA_max;noise_LA01;noise_LA95
48148;Laerm;29352;48.708;9.290;2024-01-07T00:01:39;54.61;53.49;56.95;;
48148;Laerm;29352;48.708;9.290;2024-01-07T00:04:04;55.26;53.68;60.06;;
48148;Laerm;29352;48.708;9.290;2024-01-07T00:06:30;55.39;53.09;59.29;;
48148;Laerm;29352;48.708;9.290;2024-01-07T00:08:55;54.72;53.54;59.12;;
48148;Laerm;29352;48.708;9.290;2024-01-07T00:11:21;54.58;53.29;55.45;;
48148;Laerm;29352;48.708;9.290;2024-01-07T00:13:46;54.59;53.54;55.77;;
48148;Laerm;29352;48.708;9.290;2024-01-07T00:16:12;54.60;53.49;58.25;;
48148;Laerm;29352;48.708;9.290;2024-01-07T00:18:38;54.65;53.44;57.61;;
48148;Laerm;29352;48.708;9.290;2024-01-07T00:21:04;54.63;53.49;56.88;;
48148;Laerm;29352;48.708;9.290;2024-01-07T00:23:30;54.62;53.49;57.88;;
48148;Laerm;29352;48.708;9.290;2024-01-07T00:25:55;54.60;53.49;57.34;;
48148;Laerm;29352;48.708;9.290;2024-01-07T00:28:21;54.59;53.54;55.66;;
48148;Laerm;29352;48.708;9.290;2024-01-07T00:30:47;54.59;53.58;55.66;;
48148;Laerm;29352;48.708;9.290;2024-01-07T00:33:12;54.61;53.29;56.35;;
48148;Laerm;29352;48.708;9.290;2024-01-07T00:35:38;54.57;53.49;55.54;;
48148;Laerm;29352;48.708;9.290;2024-01-07T00:38:03;54.58;53.44;56.40;;
48148;Laerm;29352;48.708;9.290;2024-01-07T00:40:29;54.59;53.54;57.18;;
48148;Laerm;29352;48.708;9.290;2024-01-07T00:42:55;54.57;53.44;56.89;;
48148;Laerm;29352;48.708;9.290;2024-01-07T00:45:20;54.58;53.54;55.63;;
48148;Laerm;29352;48.708;9.290;2024-01-07T00:47:47;54.58;53.44;55.51;;
48148;Laerm;29352;48.708;9.290;2024-01-07T00:50:12;54.59;53.68;56.02;;
48148;Laerm;29352;48.708;9.290;2024-01-07T00:52:38;54.59;53.58;55.69;;
48148;Laerm;29352;48.708;9.290;2024-01-07T00:55:06;54.60;53.54;55.66;;
48148;Laerm;29352;48.708;9.290;2024-01-07T00:57:32;54.66;53.58;57.00;;
48148;Laerm;29352;48.708;9.290;2024-01-07T00:59:59;54.61;53.54;55.77;;
48148;Laerm;29352;48.708;9.290;2024-01-07T01:02:24;55.44;53.63;58.16;;
48148;Laerm;29352;48.708;9.290;2024-01-07T01:04:50;55.96;50.43;58.10;;
48148;Laerm;29352;48.708;9.290;2024-01-07T01:07:16;55.79;49.34;57.84;;
48148;Laerm;29352;48.708;9.290;2024-01-07T01:09:42;55.87;52.59;57.68;;
48148;Laerm;29352;48.708;9.290;2024-01-07T01:12:07;55.84;50.53;57.68;;
48148;Laerm;29352;48.708;9.290;2024-01-07T01:14:33;55.75;51.89;57.46;;
48148;Laerm;29352;48.708;9.290;2024-01-07T01:16:58;55.67;47.32;57.57;;
48148;Laerm;29352;48.708;9.290;2024-01-07T01:19:24;54.94;44.31;57.72;;
48148;Laerm;29352;48.708;9.290;2024-01-07T01:21:51;55.20;51.06;57.46;;
48148;Laerm;29352;48.708;9.290;2024-01-07T01:24:17;55.51;50.71;57.36;;
48148;Laerm;29352;48.708;9.290;2024-01-07T01:26:42;55.82;40.89;57.55;;
48148;Laerm;29352;48.708;9.290;2024-01-07T01:29:08;55.73;52.35;57.24;;
48148;Laerm;29352;48.708;9.290;2024-01-07T01:31:33;55.84;53.63;57.48;;
48148;Laerm;29352;48.708;9.290;2024-01-07T01:33:59;55.75;53.90;57.48;;
48148;Laerm;29352;48.708;9.290;2024-01-07T01:36:24;55.33;53.86;57.42;;
48148;Laerm;29352;48.708;9.290;2024-01-07T01:38:50;55.50;45.04;57.18;;
48148;Laerm;29352;48.708;9.290;2024-01-07T01:41:16;55.51;33.90;57.36;;
48148;Laerm;29352;48.708;9.290;2024-01-07T01:43:42;55.60;49.58;57.54;;
48148;Laerm;29352;48.708;9.290;2024-01-07T01:46:08;55.65;52.41;57.48;;
48148;Laerm;29352;48.708;9.290;2024-01-07T01:48:36;55.62;51.14;57.28;;
48148;Laerm;29352;48.708;9.290;2024-01-07T01:51:03;55.36;39.92;57.24;;
48148;Laerm;29352;48.708;9.290;2024-01-07T01:53:28;55.18;46.69;57.16;;
48148;Laerm;29352;48.708;9.290;2024-01-07T01:55:57;55.17;52.16;57.00;;
48148;Laerm;29352;48.708;9.290;2024-01-07T01:58:25;55.33;51.89;57.30;;
48148;Laerm;29352;48.708;9.290;2024-01-07T02:00:52;55.38;51.82;57.06;;
48148;Laerm;29352;48.708;9.290;2024-01-07T02:03:18;55.10;48.67;57.30;;
48148;Laerm;29352;48.708;9.290;2024-01-07T02:05:45;55.28;49.81;57.18;;
48148;Laerm;29352;48.708;9.290;2024-01-07T02:08:11;55.26;49.34;56.97;;
48148;Laerm;29352;48.708;9.290;2024-01-07T02:10:37;55.37;50.23;57.26;;
48148;Laerm;29352;48.708;9.290;2024-01-07T02:13:05;55.48;52.09;57.16;;
48148;Laerm;29352;48.708;9.290;2024-01-07T02:15:32;55.36;49.81;56.97;;
48148;Laerm;29352;48.708;9.290;2024-01-07T02:18:00;55.30;50.03;56.93;;
48148;Laerm;29352;48.708;9.290;2024-01-07T02:20:26;55.12;50.98;56.71;;
48148;Laerm;29352;48.708;9.290;2024-01-07T02:22:53;55.01;50.71;56.89;;
48148;Laerm;29352;48.708;9.290;2024-01-07T02:25:20;54.66;47.52;56.89;;
48148;Laerm;29352;48.708;9.290;2024-01-07T02:27:46;55.15;49.08;56.71;;
48148;Laerm;29352;48.708;9.290;2024-01-07T02:30:11;55.32;50.79;57.40;;
48148;Laerm;29352;48.708;9.290;2024-01-07T02:32:37;55.17;49.08;57.04;;
48148;Laerm;29352;48.708;9.290;2024-01-07T02:35:04;55.01;52.03;57.10;;
48148;Laerm;29352;48.708;9.290;2024-01-07T02:37:29;55.24;15.00;57.00;;
48148;Laerm;29352;48.708;9.290;2024-01-07T02:39:55;55.24;50.43;56.78;;
48148;Laerm;29352;48.708;9.290;2024-01-07T02:42:21;55.39;52.47;56.87;;
48148;Laerm;29352;48.708;9.290;2024-01-07T02:44:46;55.22;38.67;56.95;;
48148;Laerm;29352;48.708;9.290;2024-01-07T02:47:12;55.27;53.09;56.97;;
48148;Laerm;29352;48.708;9.290;2024-01-07T02:49:37;55.12;50.80;57.06;;
48148;Laerm;29352;48.708;9.290;2024-01-07T02:52:03;55.22;53.63;56.84;;
48148;Laerm;29352;48.708;9.290;2024-01-07T02:54:29;55.17;53.81;57.02;;
48148;Laerm;29352;48.708;9.290;2024-01-07T02:56:54;55.19;53.90;56.66;;
48148;Laerm;29352;48.708;9.290;2024-01-07T02:59:21;54.91;52.41;57.02;;
48148;Laerm;29352;48.708;9.290;2024-01-07T03:01:46;55.10;46.20;56.57;;
48148;Laerm;29352;48.708;9.290;2024-01-07T03:04:15;55.10;53.29;56.40;;
48148;Laerm;29352;48.708;9.290;2024-01-07T03:06:41;55.16;52.59;56.84;;
48148;Laerm;29352;48.708;9.290;2024-01-07T03:09:08;54.91;49.46;56.69;;
48148;Laerm;29352;48.708;9.290;2024-01-07T03:11:33;55.21;52.41;56.80;;
48148;Laerm;29352;48.708;9.290;2024-01-07T03:13:59;55.12;52.53;56.73;;
48148;Laerm;29352;48.708;9.290;2024-01-07T03:16:26;55.25;52.82;56.73;;
48148;Laerm;29352;48.708;9.290;2024-01-07T03:18:52;55.11;49.70;56.76;;
48148;Laerm;29352;48.708;9.290;2024-01-07T03:21:20;55.20;53.49;56.71;;
48148;Laerm;29352;48.708;9.290;2024-01-07T03:23:47;55.11;15.00;56.71;;
48148;Laerm;29352;48.708;9.290;2024-01-07T03:26:15;55.10;49.92;56.64;;
48148;Laerm;29352;48.708;9.290;2024-01-07T03:28:41;55.03;49.34;56.43;;
48148;Laerm;29352;48.708;9.290;2024-01-07T03:31:16;55.03;53.94;56.28;;
48148;Laerm;29352;48.708;9.290;2024-01-07T03:33:44;54.89;50.62;56.45;;
48148;Laerm;29352;48.708;9.290;2024-01-07T03:36:12;55.18;50.43;56.78;;
48148;Laerm;29352;48.708;9.290;2024-01-07T03:38:40;55.14;51.96;56.80;;
48148;Laerm;29352;48.708;9.290;2024-01-07T03:41:06;55.14;48.21;56.84;;
48148;Laerm;29352;48.708;9.290;2024-01-07T03:43:32;55.36;52.65;57.20;;
48148;Laerm;29352;48.708;9.290;2024-01-07T03:45:59;55.36;50.33;57.10;;
48148;Laerm;29352;48.708;9.290;2024-01-07T03:48:26;55.44;51.38;57.26;;
48148;Laerm;29352;48.708;9.290;2024-01-07T03:50:53;55.47;49.34;57.44;;
48148;Laerm;29352;48.708;9.290;2024-01-07T03:53:18;56.81;52.16;58.99;;
48148;Laerm;29352;48.708;9.290;2024-01-07T03:55:44;57.45;54.97;59.67;;
48148;Laerm;29352;48.708;9.290;2024-01-07T03:58:09;56.58;54.80;58.29;;
48148;Laerm;29352;48.708;9.290;2024-01-07T04:00:36;56.35;52.22;58.26;;
48148;Laerm;29352;48.708;9.290;2024-01-07T04:03:03;56.26;15.00;58.05;;
48148;Laerm;29352;48.708;9.290;2024-01-07T04:05:28;55.77;53.09;57.54;;
48148;Laerm;29352;48.708;9.290;2024-01-07T04:07:56;55.06;48.67;57.10;;
48148;Laerm;29352;48.708;9.290;2024-01-07T04:10:21;55.26;52.47;57.16;;
48148;Laerm;29352;48.708;9.290;2024-01-07T04:12:49;55.13;48.37;56.76;;
48148;Laerm;29352;48.708;9.290;2024-01-07T04:15:15;54.78;50.03;56.89;;
48148;Laerm;29352;48.708;9.290;2024-01-07T04:17:42;54.98;49.92;56.71;;
48148;Laerm;29352;48.708;9.290;2024-01-07T04:20:08;54.59;51.38;56.41;;
48148;Laerm;29352;48.708;9.290;2024-01-07T04:22:33;54.34;52.03;55.91;;
48148;Laerm;29352;48.708;9.290;2024-01-07T04:24:59;54.69;50.89;56.30;;
48148;Laerm;29352;48.708;9.290;2024-01-07T04:27:24;55.03;53.44;56.13;;
48148;Laerm;29352;48.708;9.290;2024-01-07T04:29:54;55.06;53.81;56.10;;
48148;Laerm;29352;48.708;9.290;2024-01-07T04:32:19;55.09;53.94;56.23;;
48148;Laerm;29352;48.708;9.290;2024-01-07T04:34:45;55.13;53.24;56.28;;
48148;Laerm;29352;48.708;9.290;2024-01-07T04:37:11;55.11;52.29;56.15;;
48148;Laerm;29352;48.708;9.290;2024-01-07T04:39:36;55.06;52.47;56.43;;
48148;Laerm;29352;48.708;9.290;2024-01-07T04:42:02;55.05;53.14;56.28;;
48148;Laerm;29352;48.708;9.290;2024-01-07T04:44:28;54.63;51.75;56.38;;
48148;Laerm;29352;48.708;9.290;2024-01-07T04:46:53;54.92;51.61;56.28;;
48148;Laerm;29352;48.708;9.290;2024-01-07T04:49:19;55.10;49.70;56.28;;
48148;Laerm;29352;48.708;9.290;2024-01-07T04:51:45;55.12;52.35;56.28;;
48148;Laerm;29352;48.708;9.290;2024-01-07T04:54:11;55.08;50.89;56.30;;
48148;Laerm;29352;48.708;9.290;2024-01-07T04:56:36;55.14;48.67;56.18;;
48148;Laerm;29352;48.708;9.290;2024-01-07T04:59:02;55.15;50.03;56.25;;
48148;Laerm;29352;48.708;9.290;2024-01-07T05:01:27;55.01;51.06;56.64;;
48148;Laerm;29352;48.708;9.290;2024-01-07T05:03:53;54.63;50.53;56.62;;
48148;Laerm;29352;48.708;9.290;2024-01-07T05:06:18;54.99;52.22;56.91;;
48148;Laerm;29352;48.708;9.290;2024-01-07T05:08:43;54.61;48.87;56.69;;
48148;Laerm;29352;48.708;9.290;2024-01-07T05:11:10;54.85;50.79;56.02;;
48148;Laerm;29352;48.708;9.290;2024-01-07T05:13:36;54.56;50.89;56.13;;
48148;Laerm;29352;48.708;9.290;2024-01-07T05:16:02;54.54;51.82;55.99;;
48148;Laerm;29352;48.708;9.290;2024-01-07T05:18:29;54.46;48.52;56.28;;
48148;Laerm;29352;48.708;9.290;2024-01-07T05:20:55;54.58;52.09;56.48;;
48148;Laerm;29352;48.708;9.290;2024-01-07T05:23:20;54.27;51.46;56.45;;
48148;Laerm;29352;48.708;9.290;2024-01-07T05:25:46;54.82;50.13;56.18;;
48148;Laerm;29352;48.708;9.290;2024-01-07T05:28:13;54.79;50.33;56.30;;
48148;Laerm;29352;48.708;9.290;2024-01-07T05:30:41;55.04;53.34;56.35;;
48148;Laerm;29352;48.708;9.290;2024-01-07T05:33:06;55.05;52.35;56.33;;
48148;Laerm;29352;48.708;9.290;2024-01-07T05:35:32;54.81;48.37;56.33;;
48148;Laerm;29352;48.708;9.290;2024-01-07T05:37:57;55.00;48.87;56.73;;
48148;Laerm;29352;48.708;9.290;2024-01-07T05:40:23;54.57;51.38;56.10;;
48148;Laerm;29352;48.708;9.290;2024-01-07T05:42:49;54.73;49.70;56.28;;
48148;Laerm;29352;48.708;9.290;2024-01-07T05:45:14;54.51;47.53;56.28;;
48148;Laerm;29352;48.708;9.290;2024-01-07T05:47:40;54.19;49.92;56.57;;
48148;Laerm;29352;48.708;9.290;2024-01-07T05:50:09;54.56;52.03;56.40;;
48148;Laerm;29352;48.708;9.290;2024-01-07T05:52:36;54.50;48.95;56.45;;
48148;Laerm;29352;48.708;9.290;2024-01-07T05:55:01;54.32;50.71;56.13;;
48148;Laerm;29352;48.708;9.290;2024-01-07T05:57:27;54.34;51.46;56.02;;
48148;Laerm;29352;48.708;9.290;2024-01-07T05:59:52;54.60;51.96;56.23;;
48148;Laerm;29352;48.708;9.290;2024-01-07T06:02:18;55.06;52.59;56.20;;
48148;Laerm;29352;48.708;9.290;2024-01-07T06:04:44;54.80;53.14;56.13;;
48148;Laerm;29352;48.708;9.290;2024-01-07T06:07:10;55.07;51.53;56.30;;
48148;Laerm;29352;48.708;9.290;2024-01-07T06:09:37;55.05;48.21;56.28;;
48148;Laerm;29352;48.708;9.290;2024-01-07T06:12:03;54.60;48.52;56.33;;
48148;Laerm;29352;48.708;9.290;2024-01-07T06:14:29;54.89;53.24;56.69;;
48148;Laerm;29352;48.708;9.290;2024-01-07T06:16:55;54.64;50.43;56.15;;
48148;Laerm;29352;48.708;9.290;2024-01-07T06:19:20;54.90;47.32;56.43;;
48148;Laerm;29352;48.708;9.290;2024-01-07T06:21:46;54.25;50.23;55.99;;
48148;Laerm;29352;48.708;9.290;2024-01-07T06:24:12;54.96;48.21;56.28;;
48148;Laerm;29352;48.708;9.290;2024-01-07T06:26:38;55.06;51.14;56.30;;
48148;Laerm;29352;48.708;9.290;2024-01-07T06:29:03;55.12;51.89;56.30;;
48148;Laerm;29352;48.708;9.290;2024-01-07T06:31:29;54.99;49.34;56.28;;
48148;Laerm;29352;48.708;9.290;2024-01-07T06:33:55;55.09;53.14;56.35;;
48148;Laerm;29352;48.708;9.290;2024-01-07T06:36:26;55.14;53.34;56.13;;
48148;Laerm;29352;48.708;9.290;2024-01-07T06:38:53;55.04;51.68;56.20;;
48148;Laerm;29352;48.708;9.290;2024-01-07T06:41:19;55.16;53.19;56.35;;
48148;Laerm;29352;48.708;9.290;2024-01-07T06:43:44;55.12;52.98;56.40;;
48148;Laerm;29352;48.708;9.290;2024-01-07T06:46:10;54.55;47.12;56.41;;
48148;Laerm;29352;48.708;9.290;2024-01-07T06:48:35;54.74;48.52;56.23;;
48148;Laerm;29352;48.708;9.290;2024-01-07T06:51:01;54.77;51.53;56.25;;
48148;Laerm;29352;48.708;9.290;2024-01-07T06:53:26;54.38;50.80;56.25;;
48148;Laerm;29352;48.708;9.290;2024-01-07T06:55:52;54.12;48.52;55.99;;
48148;Laerm;29352;48.708;9.290;2024-01-07T06:58:18;54.57;51.22;56.62;;
48148;Laerm;29352;48.708;9.290;2024-01-07T07:00:44;54.32;49.46;56.33;;
48148;Laerm;29352;48.708;9.290;2024-01-07T07:03:10;53.82;46.20;56.15;;
48148;Laerm;29352;48.708;9.290;2024-01-07T07:05:36;54.47;15.00;56.25;;
48148;Laerm;29352;48.708;9.290;2024-01-07T07:08:02;54.76;47.88;56.20;;
48148;Laerm;29352;48.708;9.290;2024-01-07T07:10:28;54.85;52.59;56.30;;
48148;Laerm;29352;48.708;9.290;2024-01-07T07:12:53;54.97;49.58;56.57;;
48148;Laerm;29352;48.708;9.290;2024-01-07T07:15:20;54.95;50.98;56.33;;
48148;Laerm;29352;48.708;9.290;2024-01-07T07:17:45;53.76;15.00;57.18;;
48148;Laerm;29352;48.708;9.290;2024-01-07T07:20:11;52.80;15.00;57.88;;
48148;Laerm;29352;48.708;9.290;2024-01-07T07:22:38;54.53;15.00;58.58;;
48148;Laerm;29352;48.708;9.290;2024-01-07T07:25:04;51.19;15.00;57.72;;
48148;Laerm;29352;48.708;9.290;2024-01-07T07:27:32;44.30;15.00;55.66;;
48148;Laerm;29352;48.708;9.290;2024-01-07T07:29:58;52.24;15.00;57.90;;
48148;Laerm;29352;48.708;9.290;2024-01-07T07:32:23;53.52;15.00;57.46;;
48148;Laerm;29352;48.708;9.290;2024-01-07T07:34:49;50.22;15.00;56.28;;
48148;Laerm;29352;48.708;9.290;2024-01-07T07:37:14;38.31;15.00;49.81;;
48148;Laerm;29352;48.708;9.290;2024-01-07T07:39:40;45.72;15.00;55.45;;
48148;Laerm;29352;48.708;9.290;2024-01-07T07:42:05;54.02;43.44;57.36;;
48148;Laerm;29352;48.708;9.290;2024-01-07T07:44:31;55.72;50.13;58.42;;
48148;Laerm;29352;48.708;9.290;2024-01-07T07:46:56;55.66;48.37;57.81;;
48148;Laerm;29352;48.708;9.290;2024-01-07T07:49:22;53.38;15.00;57.10;;
48148;Laerm;29352;48.708;9.290;2024-01-07T07:51:47;55.10;52.98;56.38;;
48148;Laerm;29352;48.708;9.290;2024-01-07T07:54:13;53.31;15.00;56.73;;
48148;Laerm;29352;48.708;9.290;2024-01-07T07:56:38;51.57;15.00;56.07;;
48148;Laerm;29352;48.708;9.290;2024-01-07T07:59:04;50.38;15.00;55.57;;
48148;Laerm;29352;48.708;9.290;2024-01-07T08:01:30;52.96;33.90;56.02;;
48148;Laerm;29352;48.708;9.290;2024-01-07T08:03:56;52.20;45.36;55.75;;
48148;Laerm;29352;48.708;9.290;2024-01-07T08:06:22;51.14;44.31;55.11;;
48148;Laerm;29352;48.708;9.290;2024-01-07T08:08:48;53.94;50.53;55.77;;
48148;Laerm;29352;48.708;9.290;2024-01-07T08:11:15;54.16;42.93;56.25;;
48148;Laerm;29352;48.708;9.290;2024-01-07T08:13:41;54.15;42.35;55.99;;
48148;Laerm;29352;48.708;9.290;2024-01-07T08:16:07;53.42;46.69;55.57;;
48148;Laerm;29352;48.708;9.290;2024-01-07T08:18:33;54.17;15.00;56.23;;
48148;Laerm;29352;48.708;9.290;2024-01-07T08:20:59;53.33;47.70;55.72;;
48148;Laerm;29352;48.708;9.290;2024-01-07T08:23:25;53.49;46.20;55.83;;
48148;Laerm;29352;48.708;9.290;2024-01-07T08:25:51;54.09;43.55;56.10;;
48148;Laerm;29352;48.708;9.290;2024-01-07T08:28:17;54.65;48.21;56.13;;
48148;Laerm;29352;48.708;9.290;2024-01-07T08:30:44;54.12;49.92;56.40;;
48148;Laerm;29352;48.708;9.290;2024-01-07T08:33:10;53.20;40.89;56.10;;
48148;Laerm;29352;48.708;9.290;2024-01-07T08:35:37;54.25;49.21;56.28;;
48148;Laerm;29352;48.708;9.290;2024-01-07T08:38:02;54.69;47.12;56.33;;
48148;Laerm;29352;48.708;9.290;2024-01-07T08:40:28;54.34;47.12;56.02;;
48148;Laerm;29352;48.708;9.290;2024-01-07T08:42:54;54.18;46.20;56.02;;
48148;Laerm;29352;48.708;9.290;2024-01-07T08:45:20;54.52;48.37;56.05;;
48148;Laerm;29352;48.708;9.290;2024-01-07T08:47:46;54.25;46.10;55.75;;
48148;Laerm;29352;48.708;9.290;2024-01-07T08:50:12;54.61;52.35;56.07;;
48148;Laerm;29352;48.708;9.290;2024-01-07T08:52:38;54.43;52.22;55.75;;
48148;Laerm;29352;48.708;9.290;2024-01-07T08:55:04;54.52;52.29;55.77;;
48148;Laerm;29352;48.708;9.290;2024-01-07T08:57:32;54.23;51.22;55.75;;
48148;Laerm;29352;48.708;9.290;2024-01-07T08:59:57;53.90;52.03;55.42;;
48148;Laerm;29352;48.708;9.290;2024-01-07T09:02:23;54.33;49.70;55.80;;
48148;Laerm;29352;48.708;9.290;2024-01-07T09:04:49;53.81;47.52;55.83;;
48148;Laerm;29352;48.708;9.290;2024-01-07T09:07:15;54.49;51.96;55.86;;
48148;Laerm;29352;48.708;9.290;2024-01-07T09:09:42;54.48;52.53;55.72;;
48148;Laerm;29352;48.708;9.290;2024-01-07T09:12:08;54.46;51.22;56.05;;
48148;Laerm;29352;48.708;9.290;2024-01-07T09:14:33;54.43;51.75;55.80;;
48148;Laerm;29352;48.708;9.290;2024-01-07T09:16:59;54.17;51.82;55.69;;
48148;Laerm;29352;48.708;9.290;2024-01-07T09:19:25;54.15;51.75;55.57;;
48148;Laerm;29352;48.708;9.290;2024-01-07T09:21:51;54.18;49.11;55.91;;
48148;Laerm;29352;48.708;9.290;2024-01-07T09:24:18;54.71;51.38;55.99;;
48148;Laerm;29352;48.708;9.290;2024-01-07T09:26:44;54.71;53.14;55.91;;
48148;Laerm;29352;48.708;9.290;2024-01-07T09:29:10;54.60;53.09;56.28;;
48148;Laerm;29352;48.708;9.290;2024-01-07T09:31:36;54.45;52.16;55.69;;
48148;Laerm;29352;48.708;9.290;2024-01-07T09:34:01;54.32;52.47;55.97;;
48148;Laerm;29352;48.708;9.290;2024-01-07T09:36:27;54.17;52.22;55.77;;
48148;Laerm;29352;48.708;9.290;2024-01-07T09:38:53;54.23;52.22;55.66;;
48148;Laerm;29352;48.708;9.290;2024-01-07T09:41:19;54.18;51.06;55.63;;
48148;Laerm;29352;48.708;9.290;2024-01-07T09:43:45;54.50;51.88;55.77;;
48148;Laerm;29352;48.708;9.290;2024-01-07T09:46:10;54.42;52.82;55.66;;
48148;Laerm;29352;48.708;9.290;2024-01-07T09:48:36;54.18;52.29;55.48;;
48148;Laerm;29352;48.708;9.290;2024-01-07T09:51:06;54.16;52.65;55.66;;
48148;Laerm;29352;48.708;9.290;2024-01-07T09:53:38;53.85;51.96;55.33;;
48148;Laerm;29352;48.708;9.290;2024-01-07T09:56:25;53.95;51.96;55.33;;
48148;Laerm;29352;48.708;9.290;2024-01-07T09:58:51;54.13;52.29;55.33;;
48148;Laerm;29352;48.708;9.290;2024-01-07T10:01:19;54.31;52.98;55.66;;
48148;Laerm;29352;48.708;9.290;2024-01-07T10:03:45;54.39;53.04;55.69;;
48148;Laerm;29352;48.708;9.290;2024-01-07T10:06:12;54.34;53.14;55.57;;
48148;Laerm;29352;48.708;9.290;2024-01-07T10:08:39;54.38;53.09;55.54;;
48148;Laerm;29352;48.708;9.290;2024-01-07T10:11:04;54.23;52.65;55.72;;
48148;Laerm;29352;48.708;9.290;2024-01-07T10:13:31;54.34;52.47;55.72;;
48148;Laerm;29352;48.708;9.290;2024-01-07T10:15:57;54.41;52.76;55.75;;
48148;Laerm;29352;48.708;9.290;2024-01-07T10:18:23;54.35;52.98;55.48;;
48148;Laerm;29352;48.708;9.290;2024-01-07T10:20:48;54.30;52.71;55.69;;
48148;Laerm;29352;48.708;9.290;2024-01-07T10:23:21;54.27;52.16;55.72;;
48148;Laerm;29352;48.708;9.290;2024-01-07T10:25:46;54.31;52.53;55.48;;
48148;Laerm;29352;48.708;9.290;2024-01-07T10:28:12;54.28;52.36;55.69;;
48148;Laerm;29352;48.708;9.290;2024-01-07T10:30:39;54.21;52.29;55.75;;
48148;Laerm;29352;48.708;9.290;2024-01-07T10:33:07;54.15;52.41;55.33;;
48148;Laerm;29352;48.708;9.290;2024-01-07T10:35:40;54.27;51.68;55.54;;
48148;Laerm;29352;48.708;9.290;2024-01-07T10:38:06;54.32;52.22;55.66;;
48148;Laerm;29352;48.708;9.290;2024-01-07T10:40:32;54.16;48.95;55.72;;
48148;Laerm;29352;48.708;9.290;2024-01-07T10:43:02;54.48;49.92;55.80;;
48148;Laerm;29352;48.708;9.290;2024-01-07T10:45:28;54.38;51.94;55.60;;
48148;Laerm;29352;48.708;9.290;2024-01-07T10:47:59;54.14;48.95;55.48;;
48148;Laerm;29352;48.708;9.290;2024-01-07T10:50:30;54.27;49.46;55.57;;
48148;Laerm;29352;48.708;9.290;2024-01-07T10:53:04;54.21;52.29;55.51;;
48148;Laerm;29352;48.708;9.290;2024-01-07T10:55:34;53.93;52.22;55.20;;
48148;Laerm;29352;48.708;9.290;2024-01-07T10:58:04;53.63;51.30;55.17;;
48148;Laerm;29352;48.708;9.290;2024-01-07T11:00:32;53.47;51.14;55.07;;
48148;Laerm;29352;48.708;9.290;2024-01-07T11:03:27;54.04;51.46;55.30;;
48148;Laerm;29352;48.708;9.290;2024-01-07T11:06:21;54.17;52.30;55.63;;
48148;Laerm;29352;48.708;9.290;2024-01-07T11:09:20;54.02;36.91;55.48;;
48148;Laerm;29352;48.708;9.290;2024-01-07T11:11:46;54.26;52.95;55.57;;
48148;Laerm;29352;48.708;9.290;2024-01-07T11:14:41;54.18;52.22;55.57;;
48148;Laerm;29352;48.708;9.290;2024-01-07T11:17:11;53.87;52.03;55.14;;
48148;Laerm;29352;48.708;9.290;2024-01-07T11:19:49;53.64;51.38;55.11;;
48148;Laerm;29352;48.708;9.290;2024-01-07T11:22:25;53.90;52.16;55.33;;
48148;Laerm;29352;48.708;9.290;2024-01-07T11:24:55;54.13;52.82;55.39;;
48148;Laerm;29352;48.708;9.290;2024-01-07T11:27:26;54.06;52.65;55.36;;
48148;Laerm;29352;48.708;9.290;2024-01-07T11:30:03;54.08;52.71;55.42;;
48148;Laerm;29352;48.708;9.290;2024-01-07T11:32:34;53.96;51.68;55.23;;
48148;Laerm;29352;48.708;9.290;2024-01-07T11:35:01;54.14;52.29;55.36;;
48148;Laerm;29352;48.708;9.290;2024-01-07T11:37:28;54.07;52.65;55.27;;
48148;Laerm;29352;48.708;9.290;2024-01-07T11:39:58;54.10;52.09;55.20;;
48148;Laerm;29352;48.708;9.290;2024-01-07T11:42:23;54.12;52.35;55.39;;
48148;Laerm;29352;48.708;9.290;2024-01-07T11:44:53;54.15;52.47;55.30;;
48148;Laerm;29352;48.708;9.290;2024-01-07T11:47:22;54.22;53.04;55.42;;
48148;Laerm;29352;48.708;9.290;2024-01-07T11:49:49;54.23;52.47;55.20;;
48148;Laerm;29352;48.708;9.290;2024-01-07T11:52:15;54.13;51.53;55.36;;
48148;Laerm;29352;48.708;9.290;2024-01-07T11:54:41;54.24;51.68;55.30;;
48148;Laerm;29352;48.708;9.290;2024-01-07T11:57:10;54.28;46.20;55.57;;
48148;Laerm;29352;48.708;9.290;2024-01-07T11:59:36;54.17;46.69;55.27;;
48148;Laerm;29352;48.708;9.290;2024-01-07T12:02:03;53.91;49.08;55.30;;
48148;Laerm;29352;48.708;9.290;2024-01-07T12:04:34;53.99;50.80;55.14;;
48148;Laerm;29352;48.708;9.290;2024-01-07T12:07:01;53.84;47.70;55.23;;
48148;Laerm;29352;48.708;9.290;2024-01-07T12:09:29;54.03;51.38;55.39;;
48148;Laerm;29352;48.708;9.290;2024-01-07T12:11:55;53.80;51.14;55.20;;
48148;Laerm;29352;48.708;9.290;2024-01-07T12:14:22;53.45;51.68;54.83;;
48148;Laerm;29352;48.708;9.290;2024-01-07T12:16:48;53.58;51.82;55.23;;
48148;Laerm;29352;48.708;9.290;2024-01-07T12:19:14;53.50;40.89;54.83;;
48148;Laerm;29352;48.708;9.290;2024-01-07T12:21:39;52.98;45.36;54.80;;
48148;Laerm;29352;48.708;9.290;2024-01-07T12:24:06;51.74;45.36;54.03;;
48148;Laerm;29352;48.708;9.290;2024-01-07T12:26:32;51.56;47.88;53.39;;
48148;Laerm;29352;48.708;9.290;2024-01-07T12:29:00;52.39;36.91;54.43;;
48148;Laerm;29352;48.708;9.290;2024-01-07T12:31:32;52.79;44.31;54.47;;
48148;Laerm;29352;48.708;9.290;2024-01-07T12:33:57;52.40;42.35;54.49;;
48148;Laerm;29352;48.708;9.290;2024-01-07T12:36:24;51.51;47.52;53.94;;
48148;Laerm;29352;48.708;9.290;2024-01-07T12:38:52;50.84;44.69;53.72;;
48148;Laerm;29352;48.708;9.290;2024-01-07T12:41:22;51.77;46.20;54.54;;
48148;Laerm;29352;48.708;9.290;2024-01-07T12:43:51;52.98;49.92;54.69;;
48148;Laerm;29352;48.708;9.290;2024-01-07T12:46:17;52.92;50.33;54.51;;
48148;Laerm;29352;48.708;9.290;2024-01-07T12:48:44;51.81;46.20;54.03;;
48148;Laerm;29352;48.708;9.290;2024-01-07T12:51:10;51.90;47.88;54.23;;
48148;Laerm;29352;48.708;9.290;2024-01-07T12:53:35;51.65;45.04;54.39;;
48148;Laerm;29352;48.708;9.290;2024-01-07T12:56:02;52.05;48.05;54.19;;
48148;Laerm;29352;48.708;9.290;2024-01-07T12:58:27;51.51;48.21;54.27;;
48148;Laerm;29352;48.708;9.290;2024-01-07T13:00:53;52.91;49.46;54.54;;
48148;Laerm;29352;48.708;9.290;2024-01-07T13:03:19;52.55;49.08;54.11;;
48148;Laerm;29352;48.708;9.290;2024-01-07T13:05:46;52.53;47.88;54.43;;
48148;Laerm;29352;48.708;9.290;2024-01-07T13:08:16;52.60;49.08;54.31;;
48148;Laerm;29352;48.708;9.290;2024-01-07T13:10:45;52.01;48.95;53.99;;
48148;Laerm;29352;48.708;9.290;2024-01-07T13:13:12;52.14;49.21;54.19;;
48148;Laerm;29352;48.708;9.290;2024-01-07T13:15:38;52.06;49.08;53.99;;
48148;Laerm;29352;48.708;9.290;2024-01-07T13:18:05;52.39;47.52;54.11;;
48148;Laerm;29352;48.708;9.290;2024-01-07T13:20:31;51.91;48.37;54.47;;
48148;Laerm;29352;48.708;9.290;2024-01-07T13:22:56;52.10;45.04;54.47;;
48148;Laerm;29352;48.708;9.290;2024-01-07T13:25:22;52.06;40.89;54.27;;
48148;Laerm;29352;48.708;9.290;2024-01-07T13:27:48;52.60;49.08;54.31;;
48148;Laerm;29352;48.708;9.290;2024-01-07T13:30:13;52.71;48.95;54.47;;
48148;Laerm;29352;48.708;9.290;2024-01-07T13:32:39;52.71;45.36;54.27;;
48148;Laerm;29352;48.708;9.290;2024-01-07T13:35:06;52.45;48.81;54.19;;
48148;Laerm;29352;48.708;9.290;2024-01-07T13:37:37;52.48;49.34;54.27;;
48148;Laerm;29352;48.708;9.290;2024-01-07T13:40:04;52.33;48.37;54.15;;
48148;Laerm;29352;48.708;9.290;2024-01-07T13:42:30;52.32;49.08;54.07;;